sensor_id;sensor_type;location;lat;lon;timestamp;temperature;humidity
42973;DHT22;28610;51.214;6.962;2022-09-09T00:02:30;16.60;97.30
42973;DHT22;28610;51.214;6.962;2022-09-09T00:05:21;16.50;98.00
42973;DHT22;28610;51.214;6.962;2022-09-09T00:08:17;16.40;98.00
42973;DHT22;28610;51.214;6.962;2022-09-09T00:11:04;16.50;98.20
42973;DHT22;28610;51.214;6.962;2022-09-09T00:13:52;16.40;98.00
42973;DHT22;28610;51.214;6.962;2022-09-09T00:16:41;16.40;97.90
42973;DHT22;28610;51.214;6.962;2022-09-09T00:19:35;16.40;97.70
42973;DHT22;28610;51.214;6.962;2022-09-09T00:22:23;16.30;98.10
42973;DHT22;28610;51.214;6.962;2022-09-09T00:25:12;16.30;98.30
42973;DHT22;28610;51.214;6.962;2022-09-09T00:28:01;16.30;98.50
42973;DHT22;28610;51.214;6.962;2022-09-09T00:30:46;16.20;98.60
42973;DHT22;28610;51.214;6.962;2022-09-09T00:33:34;16.20;98.80
42973;DHT22;28610;51.214;6.962;2022-09-09T00:36:23;16.10;99.00
42973;DHT22;28610;51.214;6.962;2022-09-09T00:39:19;16.10;99.00
42973;DHT22;28610;51.214;6.962;2022-09-09T00:42:13;16.10;99.10
42973;DHT22;28610;51.214;6.962;2022-09-09T00:45:02;16.10;98.90
42973;DHT22;28610;51.214;6.962;2022-09-09T00:47:56;16.10;98.90
42973;DHT22;28610;51.214;6.962;2022-09-09T00:50:46;16.20;99.00
42973;DHT22;28610;51.214;6.962;2022-09-09T00:56:47;16.30;99.00
42973;DHT22;28610;51.214;6.962;2022-09-09T00:59:41;16.50;99.10
42973;DHT22;28610;51.214;6.962;2022-09-09T01:02:36;16.60;98.70
42973;DHT22;28610;51.214;6.962;2022-09-09T01:05:30;16.60;98.90
42973;DHT22;28610;51.214;6.962;2022-09-09T01:08:36;16.70;98.80
42973;DHT22;28610;51.214;6.962;2022-09-09T01:11:28;16.70;98.50
42973;DHT22;28610;51.214;6.962;2022-09-09T01:14:27;16.60;98.70
42973;DHT22;28610;51.214;6.962;2022-09-09T01:17:19;16.70;98.60
42973;DHT22;28610;51.214;6.962;2022-09-09T01:20:12;16.50;98.50
42973;DHT22;28610;51.214;6.962;2022-09-09T01:23:13;16.40;98.70
42973;DHT22;28610;51.214;6.962;2022-09-09T01:26:26;16.30;99.50
42973;DHT22;28610;51.214;6.962;2022-09-09T01:29:15;16.40;99.70
42973;DHT22;28610;51.214;6.962;2022-09-09T01:32:03;16.40;99.50
42973;DHT22;28610;51.214;6.962;2022-09-09T01:35:10;16.40;99.40
42973;DHT22;28610;51.214;6.962;2022-09-09T01:37:57;16.40;99.50
42973;DHT22;28610;51.214;6.962;2022-09-09T01:40:43;16.40;99.50
42973;DHT22;28610;51.214;6.962;2022-09-09T01:43:30;16.30;99.80
42973;DHT22;28610;51.214;6.962;2022-09-09T01:46:16;16.30;99.90
42973;DHT22;28610;51.214;6.962;2022-09-09T01:49:04;16.20;99.80
42973;DHT22;28610;51.214;6.962;2022-09-09T01:51:53;16.20;99.90
42973;DHT22;28610;51.214;6.962;2022-09-09T01:54:38;16.10;99.90
42973;DHT22;28610;51.214;6.962;2022-09-09T01:57:27;16.10;99.90
42973;DHT22;28610;51.214;6.962;2022-09-09T02:00:17;16.20;99.90
42973;DHT22;28610;51.214;6.962;2022-09-09T02:03:06;16.10;99.90
42973;DHT22;28610;51.214;6.962;2022-09-09T02:06:00;16.10;99.90
42973;DHT22;28610;51.214;6.962;2022-09-09T02:08:53;16.10;99.90
42973;DHT22;28610;51.214;6.962;2022-09-09T02:11:41;16.10;99.90
42973;DHT22;28610;51.214;6.962;2022-09-09T02:14:30;16.10;99.90
42973;DHT22;28610;51.214;6.962;2022-09-09T02:17:21;16.20;99.90
42973;DHT22;28610;51.214;6.962;2022-09-09T02:20:12;16.10;99.90
42973;DHT22;28610;51.214;6.962;2022-09-09T02:22:59;16.20;99.90
42973;DHT22;28610;51.214;6.962;2022-09-09T02:25:45;16.30;99.90
42973;DHT22;28610;51.214;6.962;2022-09-09T02:28:32;16.30;99.50
42973;DHT22;28610;51.214;6.962;2022-09-09T02:31:21;16.30;99.70
42973;DHT22;28610;51.214;6.962;2022-09-09T02:34:09;16.30;99.80
42973;DHT22;28610;51.214;6.962;2022-09-09T02:36:57;16.30;99.40
42973;DHT22;28610;51.214;6.962;2022-09-09T02:39:43;16.30;99.20
42973;DHT22;28610;51.214;6.962;2022-09-09T02:42:29;16.20;99.40
42973;DHT22;28610;51.214;6.962;2022-09-09T02:45:17;16.20;99.50
42973;DHT22;28610;51.214;6.962;2022-09-09T02:48:09;16.10;99.50
42973;DHT22;28610;51.214;6.962;2022-09-09T02:51:02;16.20;99.30
42973;DHT22;28610;51.214;6.962;2022-09-09T02:53:58;16.20;99.20
42973;DHT22;28610;51.214;6.962;2022-09-09T02:56:49;16.20;99.60
42973;DHT22;28610;51.214;6.962;2022-09-09T02:59:37;16.20;99.60
42973;DHT22;28610;51.214;6.962;2022-09-09T03:02:22;16.10;99.60
42973;DHT22;28610;51.214;6.962;2022-09-09T03:05:09;16.10;99.70
42973;DHT22;28610;51.214;6.962;2022-09-09T03:07:56;16.10;99.70
42973;DHT22;28610;51.214;6.962;2022-09-09T03:10:41;16.10;99.70
42973;DHT22;28610;51.214;6.962;2022-09-09T03:13:27;16.10;99.70
42973;DHT22;28610;51.214;6.962;2022-09-09T03:16:12;16.00;99.40
42973;DHT22;28610;51.214;6.962;2022-09-09T03:18:59;16.00;99.40
42973;DHT22;28610;51.214;6.962;2022-09-09T03:21:44;16.00;99.70
42973;DHT22;28610;51.214;6.962;2022-09-09T03:24:31;16.10;99.60
42973;DHT22;28610;51.214;6.962;2022-09-09T03:27:16;16.10;99.40
42973;DHT22;28610;51.214;6.962;2022-09-09T03:30:04;16.00;99.10
42973;DHT22;28610;51.214;6.962;2022-09-09T03:32:49;16.10;98.90
42973;DHT22;28610;51.214;6.962;2022-09-09T03:35:35;16.10;99.10
42973;DHT22;28610;51.214;6.962;2022-09-09T03:38:20;16.10;99.20
42973;DHT22;28610;51.214;6.962;2022-09-09T03:41:07;16.20;99.10
42973;DHT22;28610;51.214;6.962;2022-09-09T03:43:53;16.20;99.00
42973;DHT22;28610;51.214;6.962;2022-09-09T03:46:39;16.20;99.30
42973;DHT22;28610;51.214;6.962;2022-09-09T03:49:24;16.10;99.20
42973;DHT22;28610;51.214;6.962;2022-09-09T03:52:12;16.10;98.90
42973;DHT22;28610;51.214;6.962;2022-09-09T03:54:57;16.00;99.40
42973;DHT22;28610;51.214;6.962;2022-09-09T03:57:44;16.00;99.50
42973;DHT22;28610;51.214;6.962;2022-09-09T04:00:30;16.10;99.50
42973;DHT22;28610;51.214;6.962;2022-09-09T04:03:15;16.00;99.60
42973;DHT22;28610;51.214;6.962;2022-09-09T04:06:02;16.00;99.80
42973;DHT22;28610;51.214;6.962;2022-09-09T04:08:48;16.00;99.90
42973;DHT22;28610;51.214;6.962;2022-09-09T04:11:33;16.00;99.60
42973;DHT22;28610;51.214;6.962;2022-09-09T04:14:20;16.10;99.50
42973;DHT22;28610;51.214;6.962;2022-09-09T04:17:06;16.10;99.60
42973;DHT22;28610;51.214;6.962;2022-09-09T04:19:51;16.10;99.50
42973;DHT22;28610;51.214;6.962;2022-09-09T04:22:36;16.10;99.30
42973;DHT22;28610;51.214;6.962;2022-09-09T04:25:22;16.10;99.40
42973;DHT22;28610;51.214;6.962;2022-09-09T04:28:08;16.00;99.30
42973;DHT22;28610;51.214;6.962;2022-09-09T04:30:54;16.10;99.60
42973;DHT22;28610;51.214;6.962;2022-09-09T04:33:40;16.10;99.20
42973;DHT22;28610;51.214;6.962;2022-09-09T04:36:25;16.10;99.00
42973;DHT22;28610;51.214;6.962;2022-09-09T04:39:11;16.10;99.30
42973;DHT22;28610;51.214;6.962;2022-09-09T04:41:56;16.20;99.30
42973;DHT22;28610;51.214;6.962;2022-09-09T04:44:42;16.10;99.20
42973;DHT22;28610;51.214;6.962;2022-09-09T04:47:29;16.10;99.00
42973;DHT22;28610;51.214;6.962;2022-09-09T04:50:14;16.10;99.10
42973;DHT22;28610;51.214;6.962;2022-09-09T04:53:01;16.10;98.90
42973;DHT22;28610;51.214;6.962;2022-09-09T04:55:47;16.20;99.10
42973;DHT22;28610;51.214;6.962;2022-09-09T04:58:33;16.10;99.00
42973;DHT22;28610;51.214;6.962;2022-09-09T05:01:21;16.20;99.00
42973;DHT22;28610;51.214;6.962;2022-09-09T05:04:09;16.10;99.20
42973;DHT22;28610;51.214;6.962;2022-09-09T05:06:54;16.20;99.10
42973;DHT22;28610;51.214;6.962;2022-09-09T05:09:40;16.20;99.00
42973;DHT22;28610;51.214;6.962;2022-09-09T05:12:26;16.30;98.90
42973;DHT22;28610;51.214;6.962;2022-09-09T05:15:12;16.30;98.70
42973;DHT22;28610;51.214;6.962;2022-09-09T05:17:57;16.30;98.90
42973;DHT22;28610;51.214;6.962;2022-09-09T05:20:44;16.30;98.70
42973;DHT22;28610;51.214;6.962;2022-09-09T05:23:30;16.30;98.60
42973;DHT22;28610;51.214;6.962;2022-09-09T05:26:17;16.20;98.70
42973;DHT22;28610;51.214;6.962;2022-09-09T05:29:03;16.20;99.00
42973;DHT22;28610;51.214;6.962;2022-09-09T05:31:48;16.30;99.00
42973;DHT22;28610;51.214;6.962;2022-09-09T05:34:34;16.30;98.70
42973;DHT22;28610;51.214;6.962;2022-09-09T05:37:20;16.40;98.40
42973;DHT22;28610;51.214;6.962;2022-09-09T05:40:08;16.40;98.40
42973;DHT22;28610;51.214;6.962;2022-09-09T05:42:55;16.30;98.70
42973;DHT22;28610;51.214;6.962;2022-09-09T05:45:40;16.40;98.60
42973;DHT22;28610;51.214;6.962;2022-09-09T05:48:27;16.40;98.60
42973;DHT22;28610;51.214;6.962;2022-09-09T05:51:14;16.40;98.50
42973;DHT22;28610;51.214;6.962;2022-09-09T05:54:02;16.50;98.40
42973;DHT22;28610;51.214;6.962;2022-09-09T05:56:48;16.50;98.40
42973;DHT22;28610;51.214;6.962;2022-09-09T05:59:35;16.50;98.60
42973;DHT22;28610;51.214;6.962;2022-09-09T06:02:20;16.50;98.40
42973;DHT22;28610;51.214;6.962;2022-09-09T06:05:06;16.50;98.30
42973;DHT22;28610;51.214;6.962;2022-09-09T06:07:52;16.60;98.40
42973;DHT22;28610;51.214;6.962;2022-09-09T06:10:39;16.60;98.10
42973;DHT22;28610;51.214;6.962;2022-09-09T06:13:24;16.60;98.20
42973;DHT22;28610;51.214;6.962;2022-09-09T06:16:10;16.60;98.00
42973;DHT22;28610;51.214;6.962;2022-09-09T06:18:56;16.70;98.40
42973;DHT22;28610;51.214;6.962;2022-09-09T06:21:42;16.70;98.00
42973;DHT22;28610;51.214;6.962;2022-09-09T06:24:28;16.70;97.60
42973;DHT22;28610;51.214;6.962;2022-09-09T06:27:15;16.60;98.40
42973;DHT22;28610;51.214;6.962;2022-09-09T06:30:02;16.70;97.90
42973;DHT22;28610;51.214;6.962;2022-09-09T06:32:48;16.70;97.20
42973;DHT22;28610;51.214;6.962;2022-09-09T06:35:34;16.80;97.50
42973;DHT22;28610;51.214;6.962;2022-09-09T06:38:19;16.80;97.30
42973;DHT22;28610;51.214;6.962;2022-09-09T06:41:05;16.80;97.40
42973;DHT22;28610;51.214;6.962;2022-09-09T06:43:52;16.70;97.20
42973;DHT22;28610;51.214;6.962;2022-09-09T06:46:37;16.80;97.10
42973;DHT22;28610;51.214;6.962;2022-09-09T06:49:23;16.70;97.20
42973;DHT22;28610;51.214;6.962;2022-09-09T06:52:09;16.70;97.30
42973;DHT22;28610;51.214;6.962;2022-09-09T06:54:54;16.80;97.40
42973;DHT22;28610;51.214;6.962;2022-09-09T06:57:39;16.80;97.20
42973;DHT22;28610;51.214;6.962;2022-09-09T07:00:26;16.90;97.00
42973;DHT22;28610;51.214;6.962;2022-09-09T07:03:11;17.00;96.70
42973;DHT22;28610;51.214;6.962;2022-09-09T07:05:57;17.10;96.50
42973;DHT22;28610;51.214;6.962;2022-09-09T07:08:43;17.30;96.30
42973;DHT22;28610;51.214;6.962;2022-09-09T07:11:31;17.90;95.80
42973;DHT22;28610;51.214;6.962;2022-09-09T07:14:16;18.40;93.60
42973;DHT22;28610;51.214;6.962;2022-09-09T07:17:03;18.30;93.60
42973;DHT22;28610;51.214;6.962;2022-09-09T07:19:48;18.20;93.60
42973;DHT22;28610;51.214;6.962;2022-09-09T07:22:34;18.00;93.70
42973;DHT22;28610;51.214;6.962;2022-09-09T07:25:19;18.10;94.20
42973;DHT22;28610;51.214;6.962;2022-09-09T07:28:04;18.00;93.90
42973;DHT22;28610;51.214;6.962;2022-09-09T07:30:55;18.00;94.50
42973;DHT22;28610;51.214;6.962;2022-09-09T07:33:42;17.90;93.90
42973;DHT22;28610;51.214;6.962;2022-09-09T07:36:30;17.80;94.00
42973;DHT22;28610;51.214;6.962;2022-09-09T07:39:15;17.80;94.50
42973;DHT22;28610;51.214;6.962;2022-09-09T07:42:01;17.90;93.90
42973;DHT22;28610;51.214;6.962;2022-09-09T07:44:48;18.00;93.90
42973;DHT22;28610;51.214;6.962;2022-09-09T07:47:34;18.10;94.10
42973;DHT22;28610;51.214;6.962;2022-09-09T07:50:20;18.40;93.20
42973;DHT22;28610;51.214;6.962;2022-09-09T07:53:06;18.60;93.20
42973;DHT22;28610;51.214;6.962;2022-09-09T07:55:51;18.50;93.20
42973;DHT22;28610;51.214;6.962;2022-09-09T07:58:38;18.40;92.90
42973;DHT22;28610;51.214;6.962;2022-09-09T08:01:26;18.40;93.00
42973;DHT22;28610;51.214;6.962;2022-09-09T08:04:14;18.30;92.80
42973;DHT22;28610;51.214;6.962;2022-09-09T08:07:02;18.30;91.80
42973;DHT22;28610;51.214;6.962;2022-09-09T08:09:48;18.30;91.40
42973;DHT22;28610;51.214;6.962;2022-09-09T08:12:33;18.40;91.00
42973;DHT22;28610;51.214;6.962;2022-09-09T08:15:19;18.30;90.60
42973;DHT22;28610;51.214;6.962;2022-09-09T08:18:04;18.30;90.20
42973;DHT22;28610;51.214;6.962;2022-09-09T08:20:50;18.20;88.00
42973;DHT22;28610;51.214;6.962;2022-09-09T08:23:36;18.20;89.40
42973;DHT22;28610;51.214;6.962;2022-09-09T08:26:24;18.10;89.40
42973;DHT22;28610;51.214;6.962;2022-09-09T08:29:12;18.10;90.40
42973;DHT22;28610;51.214;6.962;2022-09-09T08:31:58;18.10;90.00
42973;DHT22;28610;51.214;6.962;2022-09-09T08:34:43;18.10;90.20
42973;DHT22;28610;51.214;6.962;2022-09-09T08:37:29;18.10;89.30
42973;DHT22;28610;51.214;6.962;2022-09-09T08:40:22;18.10;89.70
42973;DHT22;28610;51.214;6.962;2022-09-09T08:43:09;18.20;88.00
42973;DHT22;28610;51.214;6.962;2022-09-09T08:45:59;18.30;88.20
42973;DHT22;28610;51.214;6.962;2022-09-09T08:48:54;18.40;87.80
42973;DHT22;28610;51.214;6.962;2022-09-09T08:51:42;18.40;85.80
42973;DHT22;28610;51.214;6.962;2022-09-09T08:54:31;18.40;86.90
42973;DHT22;28610;51.214;6.962;2022-09-09T08:57:21;18.40;84.50
42973;DHT22;28610;51.214;6.962;2022-09-09T09:00:11;18.40;85.30
42973;DHT22;28610;51.214;6.962;2022-09-09T09:03:04;18.40;84.10
42973;DHT22;28610;51.214;6.962;2022-09-09T09:05:59;18.40;83.50
42973;DHT22;28610;51.214;6.962;2022-09-09T09:08:54;18.40;83.90
42973;DHT22;28610;51.214;6.962;2022-09-09T09:11:45;18.40;83.00
42973;DHT22;28610;51.214;6.962;2022-09-09T09:14:35;18.50;84.90
42973;DHT22;28610;51.214;6.962;2022-09-09T09:17:25;18.50;83.50
42973;DHT22;28610;51.214;6.962;2022-09-09T09:20:14;18.60;79.50
42973;DHT22;28610;51.214;6.962;2022-09-09T09:23:02;18.70;79.00
42973;DHT22;28610;51.214;6.962;2022-09-09T09:25:50;18.70;76.00
42973;DHT22;28610;51.214;6.962;2022-09-09T09:28:37;18.80;77.30
42973;DHT22;28610;51.214;6.962;2022-09-09T09:31:23;18.80;75.20
42973;DHT22;28610;51.214;6.962;2022-09-09T09:34:10;18.80;74.90
42973;DHT22;28610;51.214;6.962;2022-09-09T09:36:57;18.70;74.70
42973;DHT22;28610;51.214;6.962;2022-09-09T09:39:45;18.70;74.50
42973;DHT22;28610;51.214;6.962;2022-09-09T09:42:30;18.60;73.70
42973;DHT22;28610;51.214;6.962;2022-09-09T09:45:18;18.60;73.30
42973;DHT22;28610;51.214;6.962;2022-09-09T09:48:10;18.70;72.70
42973;DHT22;28610;51.214;6.962;2022-09-09T09:50:57;18.90;72.40
42973;DHT22;28610;51.214;6.962;2022-09-09T09:53:45;19.00;72.00
42973;DHT22;28610;51.214;6.962;2022-09-09T09:56:30;19.10;70.40
42973;DHT22;28610;51.214;6.962;2022-09-09T09:59:32;19.40;69.90
42973;DHT22;28610;51.214;6.962;2022-09-09T10:02:20;19.70;68.80
42973;DHT22;28610;51.214;6.962;2022-09-09T10:05:15;19.90;67.10
42973;DHT22;28610;51.214;6.962;2022-09-09T10:08:03;19.80;67.20
42973;DHT22;28610;51.214;6.962;2022-09-09T10:10:56;19.70;67.20
42973;DHT22;28610;51.214;6.962;2022-09-09T10:13:50;19.70;68.90
42973;DHT22;28610;51.214;6.962;2022-09-09T10:16:49;19.70;68.20
42973;DHT22;28610;51.214;6.962;2022-09-09T10:19:40;19.70;66.70
42973;DHT22;28610;51.214;6.962;2022-09-09T10:22:32;19.60;66.50
42973;DHT22;28610;51.214;6.962;2022-09-09T10:25:43;19.60;66.20
42973;DHT22;28610;51.214;6.962;2022-09-09T10:28:55;19.50;68.90
42973;DHT22;28610;51.214;6.962;2022-09-09T10:31:51;20.00;68.70
42973;DHT22;28610;51.214;6.962;2022-09-09T10:34:55;20.90;63.40
42973;DHT22;28610;51.214;6.962;2022-09-09T10:37:49;20.60;64.60
42973;DHT22;28610;51.214;6.962;2022-09-09T10:40:38;20.10;66.30
42973;DHT22;28610;51.214;6.962;2022-09-09T10:43:45;19.80;66.00
42973;DHT22;28610;51.214;6.962;2022-09-09T10:46:38;20.10;67.60
42973;DHT22;28610;51.214;6.962;2022-09-09T10:49:41;20.40;66.90
42973;DHT22;28610;51.214;6.962;2022-09-09T10:52:32;20.80;67.60
42973;DHT22;28610;51.214;6.962;2022-09-09T10:55:24;20.70;64.80
42973;DHT22;28610;51.214;6.962;2022-09-09T10:58:14;20.30;65.10
42973;DHT22;28610;51.214;6.962;2022-09-09T11:01:09;20.20;64.60
42973;DHT22;28610;51.214;6.962;2022-09-09T11:04:00;20.20;65.10
42973;DHT22;28610;51.214;6.962;2022-09-09T11:06:49;20.30;64.20
42973;DHT22;28610;51.214;6.962;2022-09-09T11:09:39;20.20;66.20
42973;DHT22;28610;51.214;6.962;2022-09-09T11:12:30;20.20;65.50
42973;DHT22;28610;51.214;6.962;2022-09-09T11:15:20;19.90;65.00
42973;DHT22;28610;51.214;6.962;2022-09-09T11:18:12;19.90;67.00
42973;DHT22;28610;51.214;6.962;2022-09-09T11:21:01;19.80;67.00
42973;DHT22;28610;51.214;6.962;2022-09-09T11:23:51;19.80;67.20
42973;DHT22;28610;51.214;6.962;2022-09-09T11:26:41;19.80;67.10
42973;DHT22;28610;51.214;6.962;2022-09-09T11:30:02;19.70;66.40
42973;DHT22;28610;51.214;6.962;2022-09-09T11:33:27;19.60;67.10
42973;DHT22;28610;51.214;6.962;2022-09-09T11:36:47;19.40;76.00
42973;DHT22;28610;51.214;6.962;2022-09-09T11:39:48;18.80;83.40
42973;DHT22;28610;51.214;6.962;2022-09-09T11:42:36;18.50;86.50
42973;DHT22;28610;51.214;6.962;2022-09-09T11:45:25;18.50;87.90
42973;DHT22;28610;51.214;6.962;2022-09-09T11:48:24;18.40;84.40
42973;DHT22;28610;51.214;6.962;2022-09-09T11:51:12;18.40;84.00
42973;DHT22;28610;51.214;6.962;2022-09-09T11:53:59;18.60;88.20
42973;DHT22;28610;51.214;6.962;2022-09-09T11:56:46;18.90;87.40
42973;DHT22;28610;51.214;6.962;2022-09-09T11:59:33;19.30;82.60
42973;DHT22;28610;51.214;6.962;2022-09-09T12:02:23;19.60;82.80
42973;DHT22;28610;51.214;6.962;2022-09-09T12:05:11;19.70;82.50
42973;DHT22;28610;51.214;6.962;2022-09-09T12:07:59;19.50;81.80
42973;DHT22;28610;51.214;6.962;2022-09-09T12:10:54;19.40;83.10
42973;DHT22;28610;51.214;6.962;2022-09-09T12:13:39;19.30;83.70
42973;DHT22;28610;51.214;6.962;2022-09-09T12:16:32;19.10;83.80
42973;DHT22;28610;51.214;6.962;2022-09-09T12:19:21;19.10;84.40
42973;DHT22;28610;51.214;6.962;2022-09-09T12:22:13;19.10;85.20
42973;DHT22;28610;51.214;6.962;2022-09-09T12:25:14;19.00;85.40
42973;DHT22;28610;51.214;6.962;2022-09-09T12:28:05;18.90;88.80
42973;DHT22;28610;51.214;6.962;2022-09-09T12:30:57;18.50;90.70
42973;DHT22;28610;51.214;6.962;2022-09-09T12:33:45;18.30;90.50
42973;DHT22;28610;51.214;6.962;2022-09-09T12:36:33;18.60;91.60
42973;DHT22;28610;51.214;6.962;2022-09-09T12:39:24;19.10;91.80
42973;DHT22;28610;51.214;6.962;2022-09-09T12:42:17;19.60;90.40
42973;DHT22;28610;51.214;6.962;2022-09-09T12:45:14;19.60;90.50
42973;DHT22;28610;51.214;6.962;2022-09-09T12:48:04;19.70;88.80
42973;DHT22;28610;51.214;6.962;2022-09-09T12:50:52;19.80;90.00
42973;DHT22;28610;51.214;6.962;2022-09-09T12:53:39;20.00;88.30
42973;DHT22;28610;51.214;6.962;2022-09-09T12:56:27;20.00;87.00
42973;DHT22;28610;51.214;6.962;2022-09-09T12:59:22;20.10;88.50
42973;DHT22;28610;51.214;6.962;2022-09-09T13:02:20;20.10;88.70
42973;DHT22;28610;51.214;6.962;2022-09-09T13:05:12;20.00;89.70
42973;DHT22;28610;51.214;6.962;2022-09-09T13:08:02;19.70;89.70
42973;DHT22;28610;51.214;6.962;2022-09-09T13:10:51;19.50;90.10
42973;DHT22;28610;51.214;6.962;2022-09-09T13:13:40;19.10;91.60
42973;DHT22;28610;51.214;6.962;2022-09-09T13:16:27;18.10;95.60
42973;DHT22;28610;51.214;6.962;2022-09-09T13:19:16;17.60;96.10
42973;DHT22;28610;51.214;6.962;2022-09-09T13:22:11;18.00;97.80
42973;DHT22;28610;51.214;6.962;2022-09-09T13:25:02;18.40;96.00
42973;DHT22;28610;51.214;6.962;2022-09-09T13:27:55;18.80;96.10
42973;DHT22;28610;51.214;6.962;2022-09-09T13:30:40;19.10;94.90
42973;DHT22;28610;51.214;6.962;2022-09-09T13:33:33;19.00;94.30
42973;DHT22;28610;51.214;6.962;2022-09-09T13:36:28;19.20;95.80
42973;DHT22;28610;51.214;6.962;2022-09-09T13:39:16;19.00;95.40
42973;DHT22;28610;51.214;6.962;2022-09-09T13:42:03;19.10;95.10
42973;DHT22;28610;51.214;6.962;2022-09-09T13:44:50;19.00;95.10
42973;DHT22;28610;51.214;6.962;2022-09-09T13:47:36;18.90;95.30
42973;DHT22;28610;51.214;6.962;2022-09-09T13:50:24;19.20;95.40
42973;DHT22;28610;51.214;6.962;2022-09-09T13:53:09;19.50;94.50
42973;DHT22;28610;51.214;6.962;2022-09-09T13:55:55;19.70;94.80
42973;DHT22;28610;51.214;6.962;2022-09-09T13:58:40;19.60;93.80
42973;DHT22;28610;51.214;6.962;2022-09-09T14:01:27;19.60;94.80
42973;DHT22;28610;51.214;6.962;2022-09-09T14:04:13;19.70;94.90
42973;DHT22;28610;51.214;6.962;2022-09-09T14:06:59;19.80;93.70
42973;DHT22;28610;51.214;6.962;2022-09-09T14:09:45;19.70;93.70
42973;DHT22;28610;51.214;6.962;2022-09-09T14:12:33;19.70;93.50
42973;DHT22;28610;51.214;6.962;2022-09-09T14:15:20;19.80;93.60
42973;DHT22;28610;51.214;6.962;2022-09-09T14:18:10;19.70;94.10
42973;DHT22;28610;51.214;6.962;2022-09-09T14:20:56;19.80;93.10
42973;DHT22;28610;51.214;6.962;2022-09-09T14:23:43;19.60;92.50
42973;DHT22;28610;51.214;6.962;2022-09-09T14:26:28;19.70;91.90
42973;DHT22;28610;51.214;6.962;2022-09-09T14:29:14;19.70;92.40
42973;DHT22;28610;51.214;6.962;2022-09-09T14:31:59;19.90;91.60
42973;DHT22;28610;51.214;6.962;2022-09-09T14:34:47;20.10;92.00
42973;DHT22;28610;51.214;6.962;2022-09-09T14:37:33;19.90;90.90
42973;DHT22;28610;51.214;6.962;2022-09-09T14:40:18;19.90;88.90
42973;DHT22;28610;51.214;6.962;2022-09-09T14:43:04;19.70;87.90
42973;DHT22;28610;51.214;6.962;2022-09-09T14:45:50;19.60;84.70
42973;DHT22;28610;51.214;6.962;2022-09-09T14:48:36;19.60;87.60
42973;DHT22;28610;51.214;6.962;2022-09-09T14:51:25;19.40;87.00
42973;DHT22;28610;51.214;6.962;2022-09-09T14:54:12;19.30;88.30
42973;DHT22;28610;51.214;6.962;2022-09-09T14:56:59;19.20;88.70
42973;DHT22;28610;51.214;6.962;2022-09-09T14:59:44;19.10;89.70
42973;DHT22;28610;51.214;6.962;2022-09-09T15:02:30;17.70;93.80
42973;DHT22;28610;51.214;6.962;2022-09-09T15:05:15;16.70;98.30
42973;DHT22;28610;51.214;6.962;2022-09-09T15:08:02;16.30;98.50
42973;DHT22;28610;51.214;6.962;2022-09-09T15:10:47;16.00;99.30
42973;DHT22;28610;51.214;6.962;2022-09-09T15:13:34;16.10;99.90
42973;DHT22;28610;51.214;6.962;2022-09-09T15:16:23;16.10;99.00
42973;DHT22;28610;51.214;6.962;2022-09-09T15:19:09;16.10;98.40
42973;DHT22;28610;51.214;6.962;2022-09-09T15:21:54;16.30;99.10
42973;DHT22;28610;51.214;6.962;2022-09-09T15:24:41;16.50;97.50
42973;DHT22;28610;51.214;6.962;2022-09-09T15:27:27;16.40;97.00
42973;DHT22;28610;51.214;6.962;2022-09-09T15:30:14;16.60;97.40
42973;DHT22;28610;51.214;6.962;2022-09-09T15:32:59;16.60;96.90
42973;DHT22;28610;51.214;6.962;2022-09-09T15:35:45;16.80;96.50
42973;DHT22;28610;51.214;6.962;2022-09-09T15:38:31;17.10;96.00
42973;DHT22;28610;51.214;6.962;2022-09-09T15:41:19;17.30;96.30
42973;DHT22;28610;51.214;6.962;2022-09-09T15:44:05;17.40;94.80
42973;DHT22;28610;51.214;6.962;2022-09-09T15:46:51;17.50;95.60
42973;DHT22;28610;51.214;6.962;2022-09-09T15:49:38;17.70;95.40
42973;DHT22;28610;51.214;6.962;2022-09-09T15:52:23;17.80;96.00
42973;DHT22;28610;51.214;6.962;2022-09-09T15:55:08;17.50;95.40
42973;DHT22;28610;51.214;6.962;2022-09-09T15:57:55;17.40;95.30
42973;DHT22;28610;51.214;6.962;2022-09-09T16:00:41;17.40;95.80
42973;DHT22;28610;51.214;6.962;2022-09-09T16:03:27;17.30;95.90
42973;DHT22;28610;51.214;6.962;2022-09-09T16:06:14;17.20;96.90
42973;DHT22;28610;51.214;6.962;2022-09-09T16:09:03;17.30;97.30
42973;DHT22;28610;51.214;6.962;2022-09-09T16:11:48;17.20;96.30
42973;DHT22;28610;51.214;6.962;2022-09-09T16:14:36;17.30;97.10
42973;DHT22;28610;51.214;6.962;2022-09-09T16:17:22;17.30;97.40
42973;DHT22;28610;51.214;6.962;2022-09-09T16:20:08;17.20;97.20
42973;DHT22;28610;51.214;6.962;2022-09-09T16:22:56;17.30;97.10
42973;DHT22;28610;51.214;6.962;2022-09-09T16:25:42;17.30;97.50
42973;DHT22;28610;51.214;6.962;2022-09-09T16:28:27;17.30;98.10
42973;DHT22;28610;51.214;6.962;2022-09-09T16:31:16;17.20;97.60
42973;DHT22;28610;51.214;6.962;2022-09-09T16:34:01;17.20;97.60
42973;DHT22;28610;51.214;6.962;2022-09-09T16:36:48;17.20;97.80
42973;DHT22;28610;51.214;6.962;2022-09-09T16:39:33;17.30;98.00
42973;DHT22;28610;51.214;6.962;2022-09-09T16:42:19;17.30;97.80
42973;DHT22;28610;51.214;6.962;2022-09-09T16:45:05;17.30;97.70
42973;DHT22;28610;51.214;6.962;2022-09-09T16:47:52;17.40;97.90
42973;DHT22;28610;51.214;6.962;2022-09-09T16:50:37;17.50;97.90
42973;DHT22;28610;51.214;6.962;2022-09-09T16:53:23;17.60;97.60
42973;DHT22;28610;51.214;6.962;2022-09-09T16:56:10;17.60;98.80
42973;DHT22;28610;51.214;6.962;2022-09-09T16:58:58;17.50;98.60
42973;DHT22;28610;51.214;6.962;2022-09-09T17:01:46;17.50;98.70
42973;DHT22;28610;51.214;6.962;2022-09-09T17:04:32;17.60;99.00
42973;DHT22;28610;51.214;6.962;2022-09-09T17:07:18;17.50;99.40
42973;DHT22;28610;51.214;6.962;2022-09-09T17:10:04;17.50;99.60
42973;DHT22;28610;51.214;6.962;2022-09-09T17:12:50;17.50;99.50
42973;DHT22;28610;51.214;6.962;2022-09-09T17:15:39;17.40;99.40
42973;DHT22;28610;51.214;6.962;2022-09-09T17:18:27;17.40;99.70
42973;DHT22;28610;51.214;6.962;2022-09-09T17:21:16;17.30;99.70
42973;DHT22;28610;51.214;6.962;2022-09-09T17:24:02;17.30;99.90
42973;DHT22;28610;51.214;6.962;2022-09-09T17:26:47;17.30;99.90
42973;DHT22;28610;51.214;6.962;2022-09-09T17:29:33;17.30;99.80
42973;DHT22;28610;51.214;6.962;2022-09-09T17:32:19;17.30;99.10
42973;DHT22;28610;51.214;6.962;2022-09-09T17:35:05;17.10;99.20
42973;DHT22;28610;51.214;6.962;2022-09-09T17:37:52;17.20;99.20
42973;DHT22;28610;51.214;6.962;2022-09-09T17:40:38;17.00;99.10
42973;DHT22;28610;51.214;6.962;2022-09-09T17:43:23;17.00;99.00
42973;DHT22;28610;51.214;6.962;2022-09-09T17:46:10;17.00;99.50
42973;DHT22;28610;51.214;6.962;2022-09-09T17:48:57;16.90;99.40